createdAt,value
2022-10-02T00:01:27.688Z,42.23
2022-10-02T00:03:57.856Z,42.27
2022-10-02T00:06:28.775Z,42.54
2022-10-02T00:09:00.650Z,42.26
2022-10-02T00:11:44.125Z,42.36
2022-10-02T00:14:15.866Z,42.44
2022-10-02T00:16:57.311Z,42.45
2022-10-02T00:19:25.108Z,42.61
2022-10-02T00:22:22.180Z,42.52
2022-10-02T00:25:11.932Z,42.45
2022-10-02T00:27:45.811Z,42.23
2022-10-02T00:30:17.775Z,42.21
2022-10-02T00:33:25.322Z,42.24
2022-10-02T00:36:24.641Z,42.46
2022-10-02T00:39:14.521Z,42.27
2022-10-02T00:42:03.176Z,42.51
2022-10-02T00:44:52.711Z,42.26
2022-10-02T00:47:43.961Z,42.36
2022-10-02T00:50:18.205Z,42.55
2022-10-02T00:53:03.050Z,42.61
2022-10-02T00:55:40.938Z,42.82
2022-10-02T00:58:08.450Z,42.90
2022-10-02T01:00:36.261Z,42.95
2022-10-02T01:03:23.906Z,42.98
2022-10-02T01:05:51.960Z,42.80
2022-10-02T01:08:19.585Z,42.83
2022-10-02T01:10:48.276Z,42.86
2022-10-02T01:13:16.301Z,42.77
2022-10-02T01:15:53.004Z,43.18
2022-10-02T01:18:21.239Z,43.07
2022-10-02T01:20:52.904Z,43.10
2022-10-02T01:23:37.744Z,43.18
2022-10-02T01:26:06.766Z,43.25
2022-10-02T01:28:34.584Z,43.30
2022-10-02T01:31:07.826Z,43.59
2022-10-02T01:33:37.396Z,43.36
2022-10-02T01:36:06.310Z,43.38
2022-10-02T01:38:34.913Z,43.54
2022-10-02T01:41:02.663Z,43.85
2022-10-02T01:43:45.113Z,43.97
2022-10-02T01:46:24.807Z,43.85
2022-10-02T01:49:17.539Z,44.15
2022-10-02T01:51:46.364Z,44.36
2022-10-02T01:54:14.122Z,44.62
2022-10-02T01:56:51.633Z,44.54
2022-10-02T01:59:34.502Z,44.32
2022-10-02T02:02:08.403Z,44.22
2022-10-02T02:04:41.940Z,44.98
2022-10-02T02:07:35.751Z,44.98
2022-10-02T02:10:24.193Z,44.68
2022-10-02T02:13:01.792Z,44.92
2022-10-02T02:15:40.355Z,44.91
2022-10-02T02:18:17.518Z,45.09
2022-10-02T02:20:51.767Z,44.80
2022-10-02T02:23:25.471Z,44.90
2022-10-02T02:25:59.480Z,45.00
2022-10-02T02:28:29.897Z,44.98
2022-10-02T02:31:00.876Z,44.55
2022-10-02T02:33:36.980Z,44.89
2022-10-02T02:36:11.169Z,44.95
2022-10-02T02:38:46.152Z,44.87
2022-10-02T02:41:19.503Z,44.86
2022-10-02T02:43:56.586Z,45.00
2022-10-02T02:47:06.974Z,45.05
2022-10-02T02:49:37.852Z,45.10
2022-10-02T02:52:10.371Z,44.86
2022-10-02T02:54:47.879Z,45.10
2022-10-02T02:57:20.270Z,44.87
2022-10-02T02:59:51.336Z,44.80
2022-10-02T03:02:19.124Z,44.89
2022-10-02T03:04:46.851Z,44.62
2022-10-02T03:07:17.486Z,44.51
2022-10-02T03:10:05.558Z,44.59
2022-10-02T03:12:51.845Z,45.03
2022-10-02T03:15:29.835Z,44.61
2022-10-02T03:18:13.517Z,44.75
2022-10-02T03:20:52.602Z,44.69
2022-10-02T03:23:54.307Z,44.85
2022-10-02T03:26:29.616Z,44.78
2022-10-02T03:29:02.598Z,44.80
2022-10-02T03:31:33.722Z,44.90
2022-10-02T03:34:03.792Z,44.71
2022-10-02T03:36:31.870Z,44.82
2022-10-02T03:41:50.480Z,44.73
2022-10-02T03:44:18.089Z,44.81
2022-10-02T03:46:46.092Z,44.71
2022-10-02T03:49:13.824Z,44.38
2022-10-02T03:51:41.579Z,44.38
2022-10-02T03:54:20.846Z,44.62
2022-10-02T03:57:01.639Z,44.19
2022-10-02T03:59:43.246Z,44.09
2022-10-02T04:02:29.417Z,44.13
2022-10-02T04:05:05.590Z,43.96
2022-10-02T04:07:39.926Z,44.10
2022-10-02T04:10:13.571Z,43.63
2022-10-02T04:12:52.382Z,43.38
2022-10-02T04:15:26.950Z,43.32
2022-10-02T04:18:05.095Z,43.36
2022-10-02T04:20:51.892Z,43.10
2022-10-02T04:23:38.326Z,43.12
2022-10-02T04:26:17.099Z,43.12
2022-10-02T04:28:51.626Z,43.34
2022-10-02T04:31:19.368Z,43.48
2022-10-02T04:33:47.145Z,43.51
2022-10-02T04:37:02.993Z,43.53
2022-10-02T04:39:30.543Z,43.26
2022-10-02T04:42:04.288Z,43.17
2022-10-02T04:45:09.820Z,43.25
2022-10-02T04:47:46.690Z,42.89
2022-10-02T04:50:42.449Z,42.87
2022-10-02T04:53:58.351Z,42.86
2022-10-02T04:56:33.003Z,42.85
2022-10-02T04:59:44.501Z,42.50
2022-10-02T05:02:18.347Z,42.51
2022-10-02T05:05:11.760Z,42.29
2022-10-02T05:07:55.459Z,42.59
2022-10-02T05:10:56.167Z,41.95
2022-10-02T05:13:32.942Z,42.47
2022-10-02T05:16:06.984Z,42.36
2022-10-02T05:18:58.392Z,41.88
2022-10-02T05:21:48.377Z,41.89
2022-10-02T05:24:40.810Z,41.30
2022-10-02T05:27:17.731Z,41.34
2022-10-02T05:30:05.302Z,41.54
2022-10-02T05:33:03.656Z,41.52
2022-10-02T05:35:44.515Z,41.37
2022-10-02T05:38:36.827Z,41.51
2022-10-02T05:41:13.040Z,41.74
2022-10-02T05:43:55.817Z,41.14
2022-10-02T05:46:26.475Z,41.35
2022-10-02T05:49:12.214Z,40.81
2022-10-02T05:52:04.744Z,40.97
2022-10-02T05:54:55.688Z,40.63
2022-10-02T05:57:35.360Z,40.59
2022-10-02T06:00:29.722Z,41.09
2022-10-02T06:03:15.689Z,41.20
2022-10-02T06:05:55.548Z,41.25
2022-10-02T06:08:33.913Z,41.30
2022-10-02T06:11:09.486Z,41.08
2022-10-02T06:13:58.678Z,40.48
2022-10-02T06:16:30.189Z,40.98
2022-10-02T06:19:08.071Z,40.76
2022-10-02T06:21:54.856Z,40.66
2022-10-02T06:24:36.177Z,40.01
2022-10-02T06:27:36.125Z,39.86
2022-10-02T06:30:13.002Z,39.68
2022-10-02T06:33:13.126Z,39.27
2022-10-02T06:36:30.205Z,39.24
2022-10-02T06:39:24.480Z,38.60
2022-10-02T06:41:55.326Z,38.62
2022-10-02T06:44:23.616Z,38.61
2022-10-02T06:46:52.506Z,39.06
2022-10-02T06:49:46.773Z,38.84
2022-10-02T06:52:37.805Z,38.82
2022-10-02T06:55:27.111Z,39.27
2022-10-02T06:58:12.857Z,38.94
2022-10-02T07:00:56.495Z,39.50
2022-10-02T07:03:34.567Z,39.57
2022-10-02T07:06:10.216Z,39.57
2022-10-02T07:09:02.219Z,39.97
2022-10-02T07:12:11.241Z,40.05
2022-10-02T07:15:06.501Z,39.86
2022-10-02T07:17:40.370Z,40.20
2022-10-02T07:20:14.103Z,39.93
2022-10-02T07:23:10.123Z,40.07
2022-10-02T07:25:59.089Z,40.44
2022-10-02T07:29:01.331Z,40.21
2022-10-02T07:31:50.829Z,40.37
2022-10-02T07:34:29.852Z,40.43
2022-10-02T07:37:13.658Z,40.43
2022-10-02T07:40:18.998Z,40.19
2022-10-02T07:43:00.390Z,40.29
2022-10-02T07:45:39.252Z,40.33
2022-10-02T07:48:12.833Z,39.13
2022-10-02T07:50:43.491Z,39.09
2022-10-02T07:53:50.667Z,37.66
2022-10-02T07:56:22.790Z,37.99
2022-10-02T07:58:57.188Z,38.19
2022-10-02T08:01:28.683Z,37.27
2022-10-02T08:04:00.642Z,37.46
2022-10-02T08:06:28.406Z,37.46
2022-10-02T08:09:02.708Z,37.20
2022-10-02T08:13:21.097Z,37.86
2022-10-02T08:15:54.854Z,38.55
2022-10-02T08:18:35.891Z,38.75
2022-10-02T08:21:11.905Z,39.19
2022-10-02T08:23:44.107Z,39.72
2022-10-02T08:26:25.047Z,40.60
2022-10-02T08:29:35.266Z,40.89
2022-10-02T08:32:03.102Z,40.36
2022-10-02T08:34:31.614Z,40.46
2022-10-02T08:37:35.267Z,40.50
2022-10-02T08:40:24.829Z,40.70
2022-10-02T08:43:25.864Z,41.08
2022-10-02T08:46:15.320Z,40.79
2022-10-02T08:49:02.170Z,40.96
2022-10-02T08:51:52.039Z,41.00
2022-10-02T08:54:59.100Z,41.21
2022-10-02T08:57:48.372Z,41.49
2022-10-02T09:00:24.477Z,41.31
2022-10-02T09:02:58.937Z,41.00
2022-10-02T09:05:48.450Z,41.24
2022-10-02T09:08:51.317Z,41.30
2022-10-02T09:11:50.539Z,41.45
2022-10-02T09:14:35.113Z,41.25
2022-10-02T09:17:22.174Z,41.38
2022-10-02T09:20:21.938Z,41.09
2022-10-02T09:23:08.728Z,40.78
2022-10-02T09:25:50.908Z,40.77
2022-10-02T09:28:37.563Z,40.75
2022-10-02T09:31:40.363Z,41.09
2022-10-02T09:34:47.558Z,41.72
2022-10-02T09:37:24.978Z,42.15
2022-10-02T09:40:13.523Z,43.17
2022-10-02T09:43:06.101Z,43.98
2022-10-02T09:45:45.775Z,44.40
2022-10-02T09:48:46.297Z,44.77
2022-10-02T09:52:00.181Z,46.67
2022-10-02T09:54:34.856Z,46.72
2022-10-02T09:57:31.205Z,47.82
2022-10-02T10:00:19.137Z,48.18
2022-10-02T10:03:19.261Z,48.71
2022-10-02T10:06:16.076Z,49.16
2022-10-02T10:09:21.389Z,50.14
2022-10-02T10:11:52.323Z,51.47
2022-10-02T10:14:37.502Z,51.95
2022-10-02T10:17:14.278Z,50.52
2022-10-02T10:20:03.624Z,51.62
2022-10-02T10:22:51.366Z,50.81
2022-10-02T10:25:36.133Z,50.64
2022-10-02T10:28:33.975Z,50.73
2022-10-02T10:31:16.832Z,50.03
2022-10-02T10:34:03.626Z,50.01
2022-10-02T10:36:52.939Z,50.19
2022-10-02T10:39:39.994Z,49.33
2022-10-02T10:42:16.689Z,49.49
2022-10-02T10:45:09.149Z,49.85
2022-10-02T10:48:03.373Z,49.12
2022-10-02T10:50:54.161Z,49.48
2022-10-02T10:53:49.226Z,49.33
2022-10-02T10:56:38.210Z,49.02
2022-10-02T11:00:02.368Z,49.92
2022-10-02T11:02:44.625Z,49.74
2022-10-02T11:05:37.382Z,50.34
2022-10-02T11:08:22.488Z,50.11
2022-10-02T11:11:09.745Z,49.40
2022-10-02T11:13:54.695Z,49.78
2022-10-02T11:16:35.504Z,49.61
2022-10-02T11:19:27.423Z,49.57
2022-10-02T11:22:10.393Z,49.51
2022-10-02T11:25:02.033Z,49.76
2022-10-02T11:28:04.170Z,49.95
2022-10-02T11:30:39.435Z,49.67
2022-10-02T11:33:12.085Z,49.41
2022-10-02T11:36:04.672Z,50.13
2022-10-02T11:38:51.315Z,50.61
2022-10-02T11:41:46.841Z,50.98
2022-10-02T11:44:29.315Z,50.64
2022-10-02T11:47:02.827Z,50.16
2022-10-02T11:49:45.720Z,50.27
2022-10-02T11:52:45.930Z,50.23
2022-10-02T11:55:34.714Z,50.43
2022-10-02T11:58:21.013Z,49.93
2022-10-02T12:01:05.931Z,50.29
2022-10-02T12:03:53.649Z,50.50
2022-10-02T12:06:42.301Z,50.33
2022-10-02T12:09:25.881Z,50.16
2022-10-02T12:12:02.462Z,50.04
2022-10-02T12:15:09.663Z,50.43
2022-10-02T12:18:21.809Z,49.75
2022-10-02T12:21:31.225Z,49.48
2022-10-02T12:24:40.935Z,49.60
2022-10-02T12:27:17.241Z,49.49
2022-10-02T12:29:56.882Z,49.25
2022-10-02T12:32:43.637Z,49.12
2022-10-02T12:35:31.604Z,48.97
2022-10-02T12:38:18.209Z,48.57
2022-10-02T12:40:48.672Z,48.26
2022-10-02T12:43:43.160Z,47.80
2022-10-02T12:46:29.150Z,47.79
2022-10-02T12:49:28.635Z,47.45
2022-10-02T12:52:40.660Z,47.05
2022-10-02T12:55:46.134Z,51.62
2022-10-02T12:58:13.944Z,50.42
2022-10-02T13:01:30.869Z,48.16
2022-10-02T13:04:11.475Z,47.01
2022-10-02T13:07:12.270Z,46.35
2022-10-02T13:10:05.720Z,44.99
2022-10-02T13:13:00.969Z,45.17
2022-10-02T13:15:48.773Z,44.73
2022-10-02T13:18:33.972Z,44.81
2022-10-02T13:21:11.591Z,43.40
2022-10-02T13:23:58.235Z,43.57
2022-10-02T13:26:31.981Z,42.98
2022-10-02T13:29:18.513Z,42.49
2022-10-02T13:31:57.100Z,42.51
2022-10-02T13:34:27.779Z,41.26
2022-10-02T13:37:09.027Z,41.83
2022-10-02T13:39:36.619Z,41.27
2022-10-02T13:42:45.832Z,40.40
2022-10-02T13:45:36.358Z,43.86
2022-10-02T13:48:09.898Z,41.73
2022-10-02T13:50:48.040Z,39.22
2022-10-02T13:53:43.238Z,38.05
2022-10-02T13:56:36.530Z,37.69
2022-10-02T13:59:27.509Z,39.78
2022-10-02T14:02:13.654Z,38.96
2022-10-02T14:05:28.945Z,38.02
2022-10-02T14:08:39.295Z,37.61
2022-10-02T14:11:25.378Z,38.34
2022-10-02T14:14:23.524Z,38.37
2022-10-02T14:17:26.289Z,37.48
2022-10-02T14:20:08.839Z,37.65
2022-10-02T14:23:02.718Z,37.11
2022-10-02T14:25:30.617Z,37.64
2022-10-02T14:28:10.680Z,37.98
2022-10-02T14:31:17.523Z,38.08
2022-10-02T14:34:07.082Z,37.69
2022-10-02T14:36:43.096Z,38.46
2022-10-02T14:39:24.787Z,38.43
2022-10-02T14:42:24.191Z,38.42
2022-10-02T14:45:11.141Z,38.88
2022-10-02T14:47:56.273Z,39.32
2022-10-02T14:50:51.024Z,40.20
2022-10-02T14:53:30.771Z,40.77
2022-10-02T14:56:30.114Z,41.15
2022-10-02T14:59:22.598Z,41.29
2022-10-02T15:01:56.496Z,41.47
2022-10-02T15:04:43.045Z,42.06
2022-10-02T15:07:15.449Z,42.00
2022-10-02T15:10:00.041Z,42.49
2022-10-02T15:12:53.126Z,42.68
2022-10-02T15:15:39.813Z,43.00
2022-10-02T15:18:44.763Z,42.62
2022-10-02T15:21:27.008Z,43.18
2022-10-02T15:23:58.460Z,43.27
2022-10-02T15:26:54.925Z,43.07
2022-10-02T15:29:47.091Z,43.21
2022-10-02T15:32:39.868Z,43.17
2022-10-02T15:35:39.270Z,43.28
2022-10-02T15:38:30.858Z,43.44
2022-10-02T15:41:32.174Z,43.53
2022-10-02T15:44:12.236Z,43.50
2022-10-02T15:46:42.971Z,43.52
2022-10-02T15:50:00.973Z,43.89
2022-10-02T15:53:15.352Z,44.10
2022-10-02T15:55:53.961Z,43.73
2022-10-02T15:58:40.527Z,43.83
2022-10-02T16:01:41.455Z,44.01
2022-10-02T16:04:23.321Z,43.61
2022-10-02T16:07:15.614Z,43.84
2022-10-02T16:09:58.612Z,43.98
2022-10-02T16:12:42.766Z,44.05
2022-10-02T16:15:27.631Z,43.68
2022-10-02T16:18:14.050Z,44.07
2022-10-02T16:21:18.852Z,43.87
2022-10-02T16:24:29.955Z,43.87
2022-10-02T16:27:35.147Z,44.61
2022-10-02T16:30:12.649Z,44.46
2022-10-02T16:32:45.972Z,45.06
2022-10-02T16:35:25.489Z,45.84
2022-10-02T16:38:07.714Z,45.92
2022-10-02T16:40:43.056Z,46.11
2022-10-02T16:43:42.465Z,46.76
2022-10-02T16:46:26.077Z,46.54
2022-10-02T16:49:09.422Z,46.98
2022-10-02T16:51:51.992Z,47.12
2022-10-02T16:54:26.345Z,47.06
2022-10-02T16:56:57.079Z,47.49
2022-10-02T16:59:38.604Z,47.49
2022-10-02T17:02:26.682Z,47.89
2022-10-02T17:05:16.905Z,47.96
2022-10-02T17:08:10.892Z,48.51
2022-10-02T17:10:47.174Z,48.58
2022-10-02T17:13:19.856Z,48.77
2022-10-02T17:15:56.194Z,48.91
2022-10-02T17:18:45.684Z,48.75
2022-10-02T17:21:29.201Z,48.37
2022-10-02T17:24:38.267Z,48.97
2022-10-02T17:27:21.310Z,48.81
2022-10-02T17:30:08.497Z,49.11
2022-10-02T17:32:53.308Z,48.76
2022-10-02T17:35:24.013Z,48.40
2022-10-02T17:38:10.185Z,48.66
2022-10-02T17:40:51.148Z,48.78
2022-10-02T17:43:31.614Z,51.50
2022-10-02T17:46:19.233Z,49.72
2022-10-02T17:48:52.088Z,49.50
2022-10-02T17:51:51.887Z,49.33
2022-10-02T17:55:15.958Z,49.58
2022-10-02T17:57:52.740Z,49.73
2022-10-02T18:00:24.811Z,49.23
2022-10-02T18:03:26.699Z,49.93
2022-10-02T18:06:19.833Z,50.19
2022-10-02T18:09:23.022Z,50.16
2022-10-02T18:12:16.705Z,50.16
2022-10-02T18:15:15.657Z,49.95
2022-10-02T18:17:53.172Z,50.16
2022-10-02T18:20:44.033Z,50.28
2022-10-02T18:23:40.969Z,50.39
2022-10-02T18:26:09.429Z,49.79
2022-10-02T18:28:46.717Z,49.87
2022-10-02T18:31:58.251Z,50.94
2022-10-02T18:34:47.599Z,50.31
2022-10-02T18:37:15.203Z,51.36
2022-10-02T18:39:58.311Z,51.25
2022-10-02T18:42:40.102Z,51.59
2022-10-02T18:45:45.128Z,52.25
2022-10-02T18:48:44.597Z,51.89
2022-10-02T18:51:23.943Z,51.10
2022-10-02T18:54:34.911Z,51.22
2022-10-02T18:57:08.980Z,51.12
2022-10-02T19:00:02.012Z,50.97
2022-10-02T19:03:09.008Z,51.32
2022-10-02T19:05:57.989Z,50.96
2022-10-02T19:08:51.061Z,51.02
2022-10-02T19:11:19.696Z,50.62
2022-10-02T19:13:49.133Z,50.67
2022-10-02T19:16:27.264Z,50.90
2022-10-02T19:19:17.031Z,51.06
2022-10-02T19:21:45.479Z,50.85
2022-10-02T19:24:16.723Z,50.84
2022-10-02T19:26:52.273Z,51.00
2022-10-02T19:29:32.460Z,51.97
2022-10-02T19:32:10.170Z,53.09
2022-10-02T19:34:38.094Z,51.32
2022-10-02T19:37:07.963Z,51.13
2022-10-02T19:39:41.523Z,51.09
2022-10-02T19:42:17.257Z,50.71
2022-10-02T19:44:51.566Z,50.82
2022-10-02T19:47:31.962Z,50.53
2022-10-02T19:50:01.822Z,50.41
2022-10-02T19:52:46.424Z,50.70
2022-10-02T19:55:20.704Z,50.54
2022-10-02T19:57:50.852Z,50.65
2022-10-02T20:00:20.452Z,50.49
2022-10-02T20:02:53.837Z,50.55
2022-10-02T20:05:27.162Z,50.71
2022-10-02T20:08:07.094Z,50.59
2022-10-02T20:10:42.882Z,50.69
2022-10-02T20:13:20.238Z,50.37
2022-10-02T20:16:25.178Z,50.56
2022-10-02T20:18:53.152Z,50.44
2022-10-02T20:21:55.370Z,50.71
2022-10-02T20:25:01.098Z,50.68
2022-10-02T20:27:47.172Z,50.56
2022-10-02T20:30:24.582Z,50.22
2022-10-02T20:33:18.256Z,50.67
2022-10-02T20:36:01.741Z,50.51
2022-10-02T20:38:52.506Z,50.10
2022-10-02T20:41:31.232Z,49.99
2022-10-02T20:44:08.497Z,50.07
2022-10-02T20:47:07.129Z,49.77
2022-10-02T20:49:52.817Z,49.59
2022-10-02T20:52:43.137Z,49.63
2022-10-02T20:55:19.466Z,49.26
2022-10-02T20:58:01.479Z,49.26
2022-10-02T21:00:53.250Z,49.31
2022-10-02T21:03:35.549Z,49.40
2022-10-02T21:06:29.469Z,49.32
2022-10-02T21:09:16.643Z,49.16
2022-10-02T21:12:23.561Z,48.77
2022-10-02T21:15:15.944Z,48.72
2022-10-02T21:18:11.400Z,48.60
2022-10-02T21:20:55.717Z,49.03
2022-10-02T21:24:02.629Z,48.83
2022-10-02T21:27:09.455Z,48.34
2022-10-02T21:30:02.862Z,48.76
2022-10-02T21:33:04.256Z,48.71
2022-10-02T21:35:36.029Z,48.61
2022-10-02T21:38:19.946Z,48.62
2022-10-02T21:41:16.503Z,48.33
2022-10-02T21:44:08.820Z,48.31
2022-10-02T21:47:02.769Z,48.46
2022-10-02T21:50:08.699Z,48.38
2022-10-02T21:53:11.467Z,48.28
2022-10-02T21:55:45.383Z,48.46
2022-10-02T21:58:28.489Z,48.55
2022-10-02T22:01:42.762Z,48.21
2022-10-02T22:04:28.529Z,48.42
2022-10-02T22:06:59.157Z,48.65
2022-10-02T22:09:58.033Z,48.49
2022-10-02T22:12:56.676Z,48.30
2022-10-02T22:15:39.653Z,48.45
2022-10-02T22:18:12.941Z,48.53
2022-10-02T22:21:05.158Z,48.50
2022-10-02T22:23:35.893Z,48.38
2022-10-02T22:26:22.586Z,48.68
2022-10-02T22:28:59.890Z,48.62
2022-10-02T22:32:21.589Z,48.36
2022-10-02T22:34:58.247Z,48.58
2022-10-02T22:37:46.762Z,48.35
2022-10-02T22:40:23.411Z,48.49
2022-10-02T22:42:56.666Z,48.61
2022-10-02T22:45:50.930Z,48.31
2022-10-02T22:48:35.985Z,48.66
2022-10-02T22:51:21.993Z,48.39
2022-10-02T22:53:58.898Z,48.47
2022-10-02T22:56:30.595Z,48.40
2022-10-02T22:59:22.443Z,48.70
2022-10-02T23:02:22.382Z,48.50
2022-10-02T23:05:02.102Z,48.42
2022-10-02T23:08:00.003Z,48.36
2022-10-02T23:10:30.570Z,48.18
2022-10-02T23:13:22.557Z,47.99
2022-10-02T23:16:02.890Z,47.93
2022-10-02T23:18:49.372Z,48.20
2022-10-02T23:21:33.417Z,47.94
2022-10-02T23:24:13.005Z,48.11
2022-10-02T23:26:56.824Z,48.03
2022-10-02T23:29:49.671Z,47.99
2022-10-02T23:32:33.141Z,47.96
2022-10-02T23:35:21.067Z,47.96
2022-10-02T23:37:48.644Z,47.72
2022-10-02T23:40:50.426Z,47.94
2022-10-02T23:43:59.754Z,47.67
2022-10-02T23:46:50.886Z,47.78
2022-10-02T23:49:21.792Z,47.86
2022-10-02T23:52:19.882Z,48.15
2022-10-02T23:54:50.484Z,47.78
2022-10-02T23:57:29.855Z,48.15
